createdAt,value
2019-01-15T00:01:59.635Z,8.00
2019-01-15T00:04:30.880Z,15.97
2019-01-15T00:07:02.129Z,14.10
2019-01-15T00:09:33.316Z,8.47
2019-01-15T00:12:07.954Z,11.00
2019-01-15T00:14:37.452Z,13.17
2019-01-15T00:17:08.617Z,6.57
2019-01-15T00:19:39.832Z,9.20
2019-01-15T00:22:11.032Z,5.13
2019-01-15T00:24:42.206Z,9.33
2019-01-15T00:27:13.388Z,10.57
2019-01-15T00:29:44.687Z,7.13
2019-01-15T00:32:15.912Z,6.93
2019-01-15T00:34:47.253Z,18.67
2019-01-15T00:37:18.460Z,12.27
2019-01-15T00:39:49.602Z,6.83
2019-01-15T00:42:20.805Z,6.50
2019-01-15T00:44:52.011Z,18.10
2019-01-15T00:47:23.311Z,12.40
2019-01-15T00:49:54.468Z,8.70
2019-01-15T00:52:25.656Z,8.73
2019-01-15T00:54:56.826Z,6.37
2019-01-15T00:57:28.119Z,7.37
2019-01-15T00:59:59.282Z,10.00
2019-01-15T01:02:30.473Z,15.77
2019-01-15T01:05:01.641Z,7.07
2019-01-15T01:07:32.908Z,18.47
2019-01-15T01:10:04.838Z,11.17
2019-01-15T01:12:36.054Z,10.50
2019-01-15T01:15:08.784Z,9.40
2019-01-15T01:17:41.027Z,8.57
2019-01-15T01:20:15.832Z,8.10
2019-01-15T01:22:47.035Z,15.87
2019-01-15T01:25:18.250Z,7.90
2019-01-15T01:27:49.496Z,12.57
2019-01-15T01:30:22.539Z,10.43
2019-01-15T01:32:53.780Z,14.63
2019-01-15T01:35:24.953Z,11.70
2019-01-15T01:37:56.143Z,9.67
2019-01-15T01:40:27.431Z,12.70
2019-01-15T01:42:58.557Z,8.60
2019-01-15T01:45:29.872Z,8.13
2019-01-15T01:48:01.050Z,9.53
2019-01-15T01:50:32.320Z,10.87
2019-01-15T01:53:03.503Z,6.90
2019-01-15T01:55:34.676Z,11.23
2019-01-15T01:58:05.866Z,7.43
2019-01-15T02:00:37.030Z,8.73
2019-01-15T02:03:08.330Z,16.37
2019-01-15T02:05:39.551Z,8.87
2019-01-15T02:08:10.865Z,11.33
2019-01-15T02:10:42.083Z,13.47
2019-01-15T02:13:13.347Z,11.20
2019-01-15T02:15:44.552Z,9.73
2019-01-15T02:18:15.812Z,8.50
2019-01-15T02:20:47.025Z,10.13
2019-01-15T02:23:18.219Z,7.43
2019-01-15T02:25:49.425Z,9.87
2019-01-15T02:28:20.581Z,9.73
2019-01-15T02:30:51.862Z,11.00
2019-01-15T02:33:23.061Z,12.13
2019-01-15T02:35:54.274Z,9.87
2019-01-15T02:38:25.481Z,5.80
2019-01-15T02:40:56.682Z,6.00
2019-01-15T02:43:27.842Z,12.13
2019-01-15T02:45:59.002Z,9.47
2019-01-15T02:48:30.204Z,16.00
2019-01-15T02:51:01.397Z,11.37
2019-01-15T02:53:32.673Z,8.57
2019-01-15T02:56:04.054Z,12.83
2019-01-15T02:58:35.859Z,8.53
2019-01-15T03:01:07.148Z,12.13
2019-01-15T03:03:38.360Z,9.97
2019-01-15T03:06:09.536Z,11.70
2019-01-15T03:08:40.798Z,13.07
2019-01-15T03:11:12.085Z,9.83
2019-01-15T03:13:43.535Z,4.20
2019-01-15T03:16:14.788Z,7.13
2019-01-15T03:18:47.692Z,12.73
2019-01-15T03:21:19.010Z,10.27
2019-01-15T03:23:50.215Z,6.63
2019-01-15T03:26:21.356Z,13.83
2019-01-15T03:28:52.585Z,13.00
2019-01-15T03:31:23.910Z,11.47
2019-01-15T03:33:55.095Z,6.53
2019-01-15T03:36:26.366Z,9.30
2019-01-15T03:38:57.630Z,13.07
2019-01-15T03:41:28.833Z,15.90
2019-01-15T03:44:00.114Z,10.27
2019-01-15T03:46:31.321Z,7.47
2019-01-15T03:49:02.459Z,10.40
2019-01-15T03:51:33.712Z,10.47
2019-01-15T03:54:04.880Z,8.50
2019-01-15T03:56:36.078Z,8.83
2019-01-15T03:59:07.306Z,15.97
2019-01-15T04:01:38.440Z,9.93
2019-01-15T04:04:09.661Z,10.70
2019-01-15T04:06:40.829Z,10.43
2019-01-15T04:09:12.041Z,7.60
2019-01-15T04:11:43.186Z,10.57
2019-01-15T04:14:14.377Z,8.80
2019-01-15T04:16:45.582Z,9.37
2019-01-15T04:19:16.748Z,7.27
2019-01-15T04:21:47.967Z,7.17
2019-01-15T04:24:19.136Z,5.67
2019-01-15T04:26:50.418Z,5.83
2019-01-15T04:29:21.632Z,7.83
2019-01-15T04:31:52.800Z,10.13
2019-01-15T04:34:24.069Z,9.80
2019-01-15T04:36:55.284Z,14.17
2019-01-15T04:39:26.553Z,10.63
2019-01-15T04:41:57.718Z,8.83
2019-01-15T04:44:28.928Z,4.23
2019-01-15T04:47:00.155Z,10.20
2019-01-15T04:49:31.320Z,8.50
2019-01-15T04:52:02.511Z,8.13
2019-01-15T04:54:33.773Z,5.07
2019-01-15T04:57:05.319Z,5.03
2019-01-15T04:59:37.102Z,9.63
2019-01-15T05:02:08.300Z,5.47
2019-01-15T05:04:39.496Z,7.13
2019-01-15T05:07:10.698Z,8.97
2019-01-15T05:09:41.889Z,8.20
2019-01-15T05:12:13.079Z,8.40
2019-01-15T05:14:44.317Z,12.80
2019-01-15T05:17:15.695Z,9.20
2019-01-15T05:19:46.962Z,7.27
2019-01-15T05:22:18.121Z,10.10
2019-01-15T05:24:49.325Z,8.03
2019-01-15T05:27:20.794Z,11.03
2019-01-15T05:29:52.075Z,7.63
2019-01-15T05:32:23.305Z,6.97
2019-01-15T05:34:54.532Z,14.53
2019-01-15T05:37:25.796Z,10.27
2019-01-15T05:39:56.936Z,8.57
2019-01-15T05:42:28.171Z,8.70
2019-01-15T05:45:00.052Z,11.17
2019-01-15T05:47:31.723Z,10.73
2019-01-15T05:50:02.968Z,10.30
2019-01-15T05:52:34.170Z,5.97
2019-01-15T05:55:05.923Z,13.73
2019-01-15T05:57:37.118Z,7.23
2019-01-15T06:00:09.061Z,8.50
2019-01-15T06:02:40.186Z,12.03
2019-01-15T06:05:11.654Z,7.13
2019-01-15T06:07:43.172Z,12.17
2019-01-15T06:10:14.391Z,10.03
2019-01-15T06:12:45.583Z,13.37
2019-01-15T06:15:16.946Z,4.53
2019-01-15T06:17:48.142Z,9.17
2019-01-15T06:20:19.515Z,5.60
2019-01-15T06:22:50.659Z,9.13
2019-01-15T06:25:22.010Z,6.33
2019-01-15T06:27:53.176Z,4.53
2019-01-15T06:30:24.480Z,11.20
2019-01-15T06:32:55.624Z,7.70
2019-01-15T06:35:26.831Z,8.10
2019-01-15T06:37:59.079Z,5.57
2019-01-15T06:40:30.238Z,4.30
2019-01-15T06:43:01.509Z,5.53
2019-01-15T06:45:32.843Z,12.77
2019-01-15T06:48:04.206Z,10.23
2019-01-15T06:50:35.349Z,4.77
2019-01-15T06:53:06.587Z,6.53
2019-01-15T06:55:37.672Z,11.73
2019-01-15T06:58:08.949Z,8.13
2019-01-15T07:00:40.103Z,5.93
2019-01-15T07:03:11.281Z,4.30
2019-01-15T07:05:42.601Z,7.47
2019-01-15T07:08:13.761Z,4.00
2019-01-15T07:10:44.938Z,9.00
2019-01-15T07:13:16.190Z,4.50
2019-01-15T07:15:47.589Z,5.30
2019-01-15T07:18:18.786Z,6.40
2019-01-15T07:20:50.046Z,10.43
2019-01-15T07:23:21.338Z,3.83
2019-01-15T07:25:53.682Z,6.07
2019-01-15T07:28:24.866Z,7.67
2019-01-15T07:30:58.668Z,8.40
2019-01-15T07:33:31.221Z,4.37
2019-01-15T07:36:02.407Z,4.70
2019-01-15T07:38:33.570Z,5.37
2019-01-15T07:41:04.724Z,5.67
2019-01-15T07:43:35.901Z,7.73
2019-01-15T07:46:07.110Z,4.30
2019-01-15T07:48:38.315Z,6.43
2019-01-15T07:51:09.482Z,4.83
2019-01-15T07:53:40.700Z,8.87
2019-01-15T07:56:11.991Z,8.00
2019-01-15T07:58:43.142Z,9.27
2019-01-15T08:01:15.590Z,6.53
2019-01-15T08:03:46.823Z,6.40
2019-01-15T08:06:17.996Z,8.27
2019-01-15T08:08:49.153Z,6.57
2019-01-15T08:11:20.402Z,7.67
2019-01-15T08:13:51.549Z,8.43
2019-01-15T08:16:22.716Z,8.10
2019-01-15T08:18:54.223Z,5.57
2019-01-15T08:21:25.402Z,10.03
2019-01-15T08:23:56.615Z,8.13
2019-01-15T08:26:27.767Z,11.57
2019-01-15T08:28:59.059Z,7.30
2019-01-15T08:31:30.390Z,6.80
2019-01-15T08:34:01.557Z,6.90
2019-01-15T08:36:32.774Z,9.87
2019-01-15T08:39:05.592Z,5.93
2019-01-15T08:41:37.091Z,7.27
2019-01-15T08:44:08.289Z,11.27
2019-01-15T08:46:39.455Z,9.23
2019-01-15T08:49:10.618Z,8.33
2019-01-15T08:51:43.280Z,9.70
2019-01-15T08:54:15.144Z,11.03
2019-01-15T08:56:46.331Z,12.80
2019-01-15T08:59:17.498Z,15.60
2019-01-15T09:01:48.691Z,9.83
2019-01-15T09:04:19.863Z,7.50
2019-01-15T09:06:51.043Z,10.33
2019-01-15T09:09:22.254Z,11.43
2019-01-15T09:11:53.397Z,8.07
2019-01-15T09:14:26.960Z,14.10
2019-01-15T09:16:58.659Z,9.93
2019-01-15T09:19:29.816Z,7.80
2019-01-15T09:22:01.040Z,9.17
2019-01-15T09:24:32.356Z,7.87
2019-01-15T09:27:04.125Z,8.37
2019-01-15T09:29:35.324Z,11.37
2019-01-15T09:32:06.506Z,7.57
2019-01-15T09:34:37.710Z,7.77
2019-01-15T09:37:10.514Z,12.20
2019-01-15T09:39:41.876Z,8.43
2019-01-15T09:42:13.196Z,11.40
2019-01-15T09:44:44.678Z,12.27
2019-01-15T09:47:17.124Z,10.63
2019-01-15T09:49:48.384Z,9.00
2019-01-15T09:52:20.601Z,11.00
2019-01-15T09:54:52.061Z,12.73
2019-01-15T09:57:23.288Z,15.03
2019-01-15T09:59:54.460Z,9.90
2019-01-15T10:02:25.673Z,10.60
2019-01-15T10:04:56.906Z,12.53
2019-01-15T10:07:28.087Z,9.93
2019-01-15T10:09:59.234Z,9.27
2019-01-15T10:12:30.361Z,9.60
2019-01-15T10:15:01.552Z,8.97
2019-01-15T10:17:32.671Z,16.90
2019-01-15T10:20:04.606Z,8.87
2019-01-15T10:22:35.768Z,9.57
2019-01-15T10:25:08.667Z,10.53
2019-01-15T10:27:41.253Z,8.40
2019-01-15T10:30:18.204Z,11.90
2019-01-15T10:33:20.803Z,10.60
2019-01-15T10:35:54.237Z,15.73
2019-01-15T10:38:26.787Z,11.20
2019-01-15T10:40:58.674Z,13.67
2019-01-15T10:43:31.489Z,11.23
2019-01-15T10:46:03.808Z,12.07
2019-01-15T10:48:35.080Z,12.67
2019-01-15T10:51:06.327Z,14.60
2019-01-15T10:53:37.477Z,12.00
2019-01-15T10:56:08.691Z,15.67
2019-01-15T10:58:39.931Z,11.90
2019-01-15T11:01:11.101Z,15.47
2019-01-15T11:03:42.363Z,13.83
2019-01-15T11:06:13.643Z,15.10
2019-01-15T11:08:44.813Z,13.63
2019-01-15T11:11:17.072Z,9.47
2019-01-15T11:13:48.184Z,14.67
2019-01-15T11:16:20.136Z,15.80
2019-01-15T11:18:51.331Z,13.53
2019-01-15T11:21:22.532Z,13.53
2019-01-15T11:23:53.679Z,13.73
2019-01-15T11:26:24.866Z,12.77
2019-01-15T11:28:56.009Z,14.87
2019-01-15T11:31:27.161Z,19.87
2019-01-15T11:33:58.399Z,17.20
2019-01-15T11:36:29.563Z,17.47
2019-01-15T11:39:00.797Z,18.73
2019-01-15T11:41:32.782Z,19.50
2019-01-15T11:44:03.961Z,15.33
2019-01-15T11:46:36.066Z,15.93
2019-01-15T11:49:07.330Z,18.13
2019-01-15T11:51:38.480Z,18.93
2019-01-15T11:54:09.676Z,18.13
2019-01-15T11:56:41.058Z,17.87
2019-01-15T11:59:12.571Z,17.33
2019-01-15T12:02:03.855Z,18.53
2019-01-15T12:05:12.699Z,18.87
2019-01-15T12:08:06.031Z,20.40
2019-01-15T12:11:11.647Z,18.70
2019-01-15T12:14:00.480Z,16.67
2019-01-15T12:16:50.704Z,17.03
2019-01-15T12:19:33.897Z,13.33
2019-01-15T12:22:23.365Z,20.47
2019-01-15T12:25:14.289Z,21.90
2019-01-15T12:27:53.685Z,18.67
2019-01-15T12:30:51.188Z,15.57
2019-01-15T12:33:47.312Z,18.83
2019-01-15T12:36:27.404Z,20.90
2019-01-15T12:39:33.165Z,23.63
2019-01-15T12:42:26.612Z,23.40
2019-01-15T12:45:18.418Z,23.53
2019-01-15T12:48:06.877Z,21.53
2019-01-15T12:50:55.780Z,22.63
2019-01-15T12:53:44.716Z,23.33
2019-01-15T12:56:37.781Z,23.50
2019-01-15T12:59:27.276Z,25.20
2019-01-15T13:02:20.336Z,20.43
2019-01-15T13:05:10.121Z,23.07
2019-01-15T13:07:58.877Z,22.83
2019-01-15T13:10:49.018Z,19.50
2019-01-15T13:13:38.080Z,17.97
2019-01-15T13:16:37.144Z,19.03
2019-01-15T13:19:30.151Z,16.63
2019-01-15T13:22:19.244Z,26.90
2019-01-15T13:25:12.527Z,16.77
2019-01-15T13:28:01.484Z,18.00
2019-01-15T13:30:50.557Z,21.37
2019-01-15T13:33:56.062Z,25.17
2019-01-15T13:36:40.557Z,21.70
2019-01-15T13:39:29.373Z,13.47
2019-01-15T13:42:26.357Z,20.13
2019-01-15T13:45:19.340Z,22.57
2019-01-15T13:48:00.204Z,17.83
2019-01-15T13:50:54.377Z,24.13
2019-01-15T13:53:45.176Z,12.13
2019-01-15T13:56:30.748Z,17.80
2019-01-15T13:59:36.284Z,18.13
2019-01-15T14:02:27.580Z,11.00
2019-01-15T14:05:23.806Z,17.83
2019-01-15T14:08:23.076Z,17.03
2019-01-15T14:11:06.210Z,18.57
2019-01-15T14:13:54.904Z,18.57
2019-01-15T14:16:44.245Z,17.03
2019-01-15T14:19:32.048Z,19.17
2019-01-15T14:22:21.423Z,12.00
2019-01-15T14:25:12.736Z,19.43
2019-01-15T14:28:12.322Z,19.67
2019-01-15T14:31:06.527Z,14.97
2019-01-15T14:34:02.721Z,21.70
2019-01-15T14:36:52.946Z,15.17
2019-01-15T14:39:41.533Z,17.73
2019-01-15T14:42:40.966Z,18.20
2019-01-15T14:45:30.439Z,19.30
2019-01-15T14:48:21.621Z,20.50
2019-01-15T14:51:09.132Z,22.30
2019-01-15T14:53:56.206Z,15.37
2019-01-15T14:56:45.168Z,17.80
2019-01-15T14:59:34.066Z,18.33
2019-01-15T15:02:23.239Z,17.53
2019-01-15T15:05:01.053Z,18.83
2019-01-15T15:07:52.278Z,24.33
2019-01-15T15:10:52.255Z,16.83
2019-01-15T15:13:37.041Z,19.23
2019-01-15T15:16:27.196Z,15.10
2019-01-15T15:19:09.618Z,19.77
2019-01-15T15:21:58.563Z,20.40
2019-01-15T15:25:08.252Z,15.47
2019-01-15T15:27:59.459Z,20.87
2019-01-15T15:30:56.632Z,22.47
2019-01-15T15:33:46.859Z,18.60
2019-01-15T15:36:40.136Z,16.73
2019-01-15T15:39:23.982Z,19.77
2019-01-15T15:42:20.082Z,15.90
2019-01-15T15:45:07.084Z,18.43
2019-01-15T15:47:58.972Z,18.73
2019-01-15T15:50:59.087Z,18.37
2019-01-15T15:53:48.184Z,16.70
2019-01-15T15:56:37.389Z,15.20
2019-01-15T15:59:26.266Z,16.90
2019-01-15T16:02:24.087Z,21.60
2019-01-15T16:05:18.497Z,18.73
2019-01-15T16:08:11.722Z,16.03
2019-01-15T16:11:12.597Z,15.20
2019-01-15T16:13:58.274Z,16.77
2019-01-15T16:16:47.997Z,15.43
2019-01-15T16:19:35.928Z,19.23
2019-01-15T16:22:24.846Z,22.57
2019-01-15T16:25:27.364Z,11.90
2019-01-15T16:28:17.552Z,19.87
2019-01-15T16:31:10.937Z,19.27
2019-01-15T16:33:57.395Z,16.07
2019-01-15T16:36:46.245Z,17.77
2019-01-15T16:39:36.383Z,16.87
2019-01-15T16:42:35.282Z,16.33
2019-01-15T16:45:26.037Z,21.83
2019-01-15T16:48:05.898Z,19.13
2019-01-15T16:50:45.550Z,17.07
2019-01-15T16:53:42.013Z,19.43
2019-01-15T16:56:44.394Z,16.33
2019-01-15T16:59:46.886Z,18.20
2019-01-15T17:02:36.004Z,14.23
2019-01-15T17:05:29.116Z,17.33
2019-01-15T17:08:12.906Z,20.00
2019-01-15T17:11:00.681Z,26.53
2019-01-15T17:14:03.078Z,23.67
2019-01-15T17:16:51.760Z,22.40
2019-01-15T17:19:39.584Z,25.70
2019-01-15T17:22:37.701Z,22.00
2019-01-15T17:25:26.872Z,21.33
2019-01-15T17:28:08.888Z,26.87
2019-01-15T17:30:58.122Z,23.53
2019-01-15T17:33:47.295Z,19.40
2019-01-15T17:36:49.617Z,23.00
2019-01-15T17:39:42.822Z,22.40
2019-01-15T17:42:51.399Z,22.67
2019-01-15T17:45:40.589Z,20.87
2019-01-15T17:48:32.093Z,19.70
2019-01-15T17:51:37.450Z,17.90
2019-01-15T17:54:27.748Z,22.83
2019-01-15T17:57:31.225Z,22.20
2019-01-15T18:00:40.015Z,22.90
2019-01-15T18:03:30.354Z,13.87
2019-01-15T18:06:23.404Z,19.60
2019-01-15T18:09:13.679Z,24.80
2019-01-15T18:12:02.834Z,21.67
2019-01-15T18:14:59.382Z,22.33
2019-01-15T18:17:55.407Z,26.30
2019-01-15T18:20:38.718Z,12.67
2019-01-15T18:23:25.183Z,24.67
2019-01-15T18:26:21.754Z,22.10
2019-01-15T18:29:11.004Z,22.13
2019-01-15T18:32:00.184Z,23.67
2019-01-15T18:34:59.267Z,22.07
2019-01-15T18:38:00.747Z,17.90
2019-01-15T18:41:09.224Z,23.80
2019-01-15T18:44:08.800Z,24.17
2019-01-15T18:46:57.620Z,22.63
2019-01-15T18:49:47.763Z,21.17
2019-01-15T18:52:56.420Z,23.90
2019-01-15T18:55:40.373Z,22.67
2019-01-15T18:58:29.412Z,23.83
2019-01-15T19:01:37.879Z,26.50
2019-01-15T19:04:30.734Z,25.10
2019-01-15T19:07:23.720Z,24.57
2019-01-15T19:10:20.007Z,22.87
2019-01-15T19:13:16.206Z,25.17
2019-01-15T19:16:05.548Z,28.10
2019-01-15T19:18:54.893Z,26.63
2019-01-15T19:22:03.209Z,26.60
2019-01-15T19:25:11.662Z,26.53
2019-01-15T19:28:01.477Z,28.50
2019-01-15T19:30:52.846Z,29.50
2019-01-15T19:33:42.040Z,25.77
2019-01-15T19:36:32.243Z,27.70
2019-01-15T19:39:24.337Z,22.47
2019-01-15T19:42:32.978Z,25.47
2019-01-15T19:45:32.878Z,24.20
2019-01-15T19:48:23.269Z,20.00
2019-01-15T19:51:07.061Z,19.67
2019-01-15T19:54:00.218Z,25.97
2019-01-15T19:56:52.454Z,24.30
2019-01-15T19:59:59.626Z,26.07
2019-01-15T20:03:03.693Z,27.53
2019-01-15T20:06:00.089Z,26.10
2019-01-15T20:08:49.519Z,24.80
2019-01-15T20:11:47.511Z,28.23
2019-01-15T20:14:50.559Z,26.83
2019-01-15T20:17:57.275Z,29.60
2019-01-15T20:20:52.015Z,27.60
2019-01-15T20:23:34.833Z,27.17
2019-01-15T20:26:43.429Z,27.60
2019-01-15T20:29:42.641Z,21.70
2019-01-15T20:32:35.897Z,26.37
2019-01-15T20:35:45.136Z,28.53
2019-01-15T20:38:35.272Z,26.33
2019-01-15T20:41:34.771Z,23.90
2019-01-15T20:44:15.242Z,26.87
2019-01-15T20:47:04.211Z,24.53
2019-01-15T20:49:53.302Z,22.87
2019-01-15T20:52:42.150Z,30.90
2019-01-15T20:55:24.252Z,27.13
2019-01-15T20:58:13.835Z,25.07
2019-01-15T21:01:09.253Z,24.17
2019-01-15T21:04:15.017Z,29.47
2019-01-15T21:06:59.848Z,26.43
2019-01-15T21:09:56.385Z,24.23
2019-01-15T21:12:49.480Z,16.23
2019-01-15T21:15:37.192Z,25.07
2019-01-15T21:18:26.340Z,27.13
2019-01-15T21:21:28.947Z,19.23
2019-01-15T21:24:34.262Z,18.47
2019-01-15T21:27:14.681Z,29.40
2019-01-15T21:29:54.211Z,28.17
2019-01-15T21:32:44.452Z,24.27
2019-01-15T21:35:38.007Z,27.53
2019-01-15T21:38:28.186Z,24.97
2019-01-15T21:41:15.303Z,25.83
2019-01-15T21:44:23.589Z,23.27
2019-01-15T21:47:10.341Z,24.40
2019-01-15T21:49:59.365Z,25.47
2019-01-15T21:52:47.627Z,26.10
2019-01-15T21:55:39.942Z,25.83
2019-01-15T21:58:36.331Z,18.60
2019-01-15T22:01:32.867Z,22.10
2019-01-15T22:04:31.898Z,19.87
2019-01-15T22:07:20.635Z,19.43
2019-01-15T22:10:20.288Z,22.53
2019-01-15T22:13:06.916Z,20.60
2019-01-15T22:16:02.739Z,23.13
2019-01-15T22:19:14.512Z,21.13
2019-01-15T22:22:46.531Z,20.70
2019-01-15T22:26:10.646Z,19.50
2019-01-15T22:29:10.268Z,17.13
2019-01-15T22:32:22.150Z,19.53
2019-01-15T22:35:20.962Z,16.63
2019-01-15T22:38:55.245Z,22.77
2019-01-15T22:42:20.576Z,21.30
2019-01-15T22:45:30.717Z,16.87
2019-01-15T22:48:27.752Z,15.60
2019-01-15T22:54:52.789Z,12.00
2019-01-15T22:57:53.766Z,15.27
2019-01-15T23:00:58.521Z,14.50
2019-01-15T23:03:56.898Z,19.97
2019-01-15T23:06:48.611Z,20.23
2019-01-15T23:09:46.260Z,15.97
2019-01-15T23:12:42.660Z,18.47
2019-01-15T23:15:36.687Z,14.53
2019-01-15T23:18:37.640Z,17.10
2019-01-15T23:22:04.751Z,20.83
2019-01-15T23:25:02.852Z,18.47
2019-01-15T23:28:19.687Z,19.43
2019-01-15T23:31:22.889Z,17.13
2019-01-15T23:34:30.965Z,19.63
2019-01-15T23:37:25.465Z,16.63
2019-01-15T23:40:43.158Z,17.87
2019-01-15T23:43:38.671Z,18.10
2019-01-15T23:46:38.042Z,17.83
2019-01-15T23:49:40.397Z,19.77
2019-01-15T23:52:45.230Z,15.33
2019-01-15T23:55:46.907Z,17.17
2019-01-15T23:58:48.206Z,16.20
